sensor_id;sensor_type;location;lat;lon;timestamp;temperature;humidity
40023;DHT22;25713;-35.352;149.036;2023-05-10T00:00:50;12.60;79.70
40023;DHT22;25713;-35.352;149.036;2023-05-10T00:03:19;12.70;79.40
40023;DHT22;25713;-35.352;149.036;2023-05-10T00:05:49;12.70;80.30
40023;DHT22;25713;-35.352;149.036;2023-05-10T00:08:18;12.70;79.70
40023;DHT22;25713;-35.352;149.036;2023-05-10T00:10:48;12.80;80.30
40023;DHT22;25713;-35.352;149.036;2023-05-10T00:13:18;12.80;79.70
40023;DHT22;25713;-35.352;149.036;2023-05-10T00:15:49;12.80;79.80
40023;DHT22;25713;-35.352;149.036;2023-05-10T00:18:19;12.90;79.90
40023;DHT22;25713;-35.352;149.036;2023-05-10T00:20:48;12.90;80.00
40023;DHT22;25713;-35.352;149.036;2023-05-10T00:23:18;12.90;80.00
40023;DHT22;25713;-35.352;149.036;2023-05-10T00:25:47;13.00;79.20
40023;DHT22;25713;-35.352;149.036;2023-05-10T00:28:17;13.00;79.50
40023;DHT22;25713;-35.352;149.036;2023-05-10T00:30:48;13.00;79.80
40023;DHT22;25713;-35.352;149.036;2023-05-10T00:33:18;13.00;79.70
40023;DHT22;25713;-35.352;149.036;2023-05-10T00:35:47;13.10;79.30
40023;DHT22;25713;-35.352;149.036;2023-05-10T00:38:17;13.10;79.30
40023;DHT22;25713;-35.352;149.036;2023-05-10T00:40:47;13.20;79.40
40023;DHT22;25713;-35.352;149.036;2023-05-10T00:43:25;13.20;78.90
40023;DHT22;25713;-35.352;149.036;2023-05-10T00:45:57;13.30;78.30
40023;DHT22;25713;-35.352;149.036;2023-05-10T00:48:26;13.30;78.50
40023;DHT22;25713;-35.352;149.036;2023-05-10T00:50:57;13.30;78.50
40023;DHT22;25713;-35.352;149.036;2023-05-10T00:53:27;13.40;78.50
40023;DHT22;25713;-35.352;149.036;2023-05-10T00:55:57;13.40;78.00
40023;DHT22;25713;-35.352;149.036;2023-05-10T00:58:28;13.50;78.60
40023;DHT22;25713;-35.352;149.036;2023-05-10T01:01:01;13.50;78.60
40023;DHT22;25713;-35.352;149.036;2023-05-10T01:03:32;13.60;78.20
40023;DHT22;25713;-35.352;149.036;2023-05-10T01:06:02;13.50;78.60
40023;DHT22;25713;-35.352;149.036;2023-05-10T01:08:31;13.60;78.60
40023;DHT22;25713;-35.352;149.036;2023-05-10T01:11:01;13.60;78.00
40023;DHT22;25713;-35.352;149.036;2023-05-10T01:13:33;13.70;77.80
40023;DHT22;25713;-35.352;149.036;2023-05-10T01:16:08;13.70;77.70
40023;DHT22;25713;-35.352;149.036;2023-05-10T01:18:39;13.70;77.50
40023;DHT22;25713;-35.352;149.036;2023-05-10T01:21:19;13.70;78.00
40023;DHT22;25713;-35.352;149.036;2023-05-10T01:24:16;13.80;77.90
40023;DHT22;25713;-35.352;149.036;2023-05-10T01:33:25;13.90;77.40
40023;DHT22;25713;-35.352;149.036;2023-05-10T01:36:01;13.90;78.70
40023;DHT22;25713;-35.352;149.036;2023-05-10T01:38:41;13.90;76.70
40023;DHT22;25713;-35.352;149.036;2023-05-10T01:41:16;14.00;76.00
40023;DHT22;25713;-35.352;149.036;2023-05-10T01:43:52;13.90;76.90
40023;DHT22;25713;-35.352;149.036;2023-05-10T01:46:28;14.00;76.40
40023;DHT22;25713;-35.352;149.036;2023-05-10T01:49:05;14.00;78.80
40023;DHT22;25713;-35.352;149.036;2023-05-10T01:51:41;14.00;76.90
40023;DHT22;25713;-35.352;149.036;2023-05-10T01:54:12;14.10;78.90
40023;DHT22;25713;-35.352;149.036;2023-05-10T01:56:42;14.10;77.00
40023;DHT22;25713;-35.352;149.036;2023-05-10T01:59:15;14.20;75.80
40023;DHT22;25713;-35.352;149.036;2023-05-10T02:01:47;14.20;77.70
40023;DHT22;25713;-35.352;149.036;2023-05-10T02:04:20;14.30;77.80
40023;DHT22;25713;-35.352;149.036;2023-05-10T02:06:53;14.30;78.50
40023;DHT22;25713;-35.352;149.036;2023-05-10T02:09:22;14.30;78.10
40023;DHT22;25713;-35.352;149.036;2023-05-10T02:11:54;14.30;77.60
40023;DHT22;25713;-35.352;149.036;2023-05-10T02:14:25;14.40;77.60
40023;DHT22;25713;-35.352;149.036;2023-05-10T02:16:55;14.40;77.70
40023;DHT22;25713;-35.352;149.036;2023-05-10T02:19:29;14.50;76.40
40023;DHT22;25713;-35.352;149.036;2023-05-10T02:22:00;14.50;78.00
40023;DHT22;25713;-35.352;149.036;2023-05-10T02:24:32;14.50;78.10
40023;DHT22;25713;-35.352;149.036;2023-05-10T02:27:03;14.50;77.40
40023;DHT22;25713;-35.352;149.036;2023-05-10T02:29:34;14.60;77.80
40023;DHT22;25713;-35.352;149.036;2023-05-10T02:32:05;14.60;77.80
40023;DHT22;25713;-35.352;149.036;2023-05-10T02:34:38;14.70;76.40
40023;DHT22;25713;-35.352;149.036;2023-05-10T02:37:09;14.70;76.00
40023;DHT22;25713;-35.352;149.036;2023-05-10T02:39:39;14.70;75.90
40023;DHT22;25713;-35.352;149.036;2023-05-10T02:42:10;14.80;73.30
40023;DHT22;25713;-35.352;149.036;2023-05-10T02:44:44;14.80;71.60
40023;DHT22;25713;-35.352;149.036;2023-05-10T02:47:17;14.80;74.60
40023;DHT22;25713;-35.352;149.036;2023-05-10T02:49:52;14.90;76.20
40023;DHT22;25713;-35.352;149.036;2023-05-10T02:52:26;14.90;76.50
40023;DHT22;25713;-35.352;149.036;2023-05-10T02:54:58;14.90;75.10
40023;DHT22;25713;-35.352;149.036;2023-05-10T02:57:31;14.90;75.80
40023;DHT22;25713;-35.352;149.036;2023-05-10T03:00:02;14.90;73.40
40023;DHT22;25713;-35.352;149.036;2023-05-10T03:02:31;14.90;74.40
40023;DHT22;25713;-35.352;149.036;2023-05-10T03:05:04;15.00;76.30
40023;DHT22;25713;-35.352;149.036;2023-05-10T03:07:34;15.00;71.70
40023;DHT22;25713;-35.352;149.036;2023-05-10T03:10:05;15.00;75.30
40023;DHT22;25713;-35.352;149.036;2023-05-10T03:12:47;15.00;75.30
40023;DHT22;25713;-35.352;149.036;2023-05-10T03:15:29;15.10;75.20
40023;DHT22;25713;-35.352;149.036;2023-05-10T03:18:04;15.00;76.40
40023;DHT22;25713;-35.352;149.036;2023-05-10T03:20:42;15.10;73.90
40023;DHT22;25713;-35.352;149.036;2023-05-10T03:23:18;15.10;73.90
40023;DHT22;25713;-35.352;149.036;2023-05-10T03:25:49;15.10;74.00
40023;DHT22;25713;-35.352;149.036;2023-05-10T03:28:21;15.20;72.20
40023;DHT22;25713;-35.352;149.036;2023-05-10T03:30:54;15.30;73.10
40023;DHT22;25713;-35.352;149.036;2023-05-10T03:33:24;15.30;72.80
40023;DHT22;25713;-35.352;149.036;2023-05-10T03:35:57;15.30;72.10
40023;DHT22;25713;-35.352;149.036;2023-05-10T03:38:26;15.40;72.90
40023;DHT22;25713;-35.352;149.036;2023-05-10T03:40:56;15.40;71.00
40023;DHT22;25713;-35.352;149.036;2023-05-10T03:43:25;15.40;69.00
40023;DHT22;25713;-35.352;149.036;2023-05-10T03:45:55;15.30;73.60
40023;DHT22;25713;-35.352;149.036;2023-05-10T03:48:25;15.40;73.70
40023;DHT22;25713;-35.352;149.036;2023-05-10T03:50:59;15.40;71.80
40023;DHT22;25713;-35.352;149.036;2023-05-10T03:53:29;15.40;72.60
40023;DHT22;25713;-35.352;149.036;2023-05-10T03:55:59;15.40;72.80
40023;DHT22;25713;-35.352;149.036;2023-05-10T03:58:28;15.50;73.90
40023;DHT22;25713;-35.352;149.036;2023-05-10T04:00:58;15.50;73.20
40023;DHT22;25713;-35.352;149.036;2023-05-10T04:03:27;15.50;72.10
40023;DHT22;25713;-35.352;149.036;2023-05-10T04:06:10;15.50;72.50
40023;DHT22;25713;-35.352;149.036;2023-05-10T04:08:39;15.60;74.20
40023;DHT22;25713;-35.352;149.036;2023-05-10T04:11:10;15.60;72.70
40023;DHT22;25713;-35.352;149.036;2023-05-10T04:13:40;15.60;72.30
40023;DHT22;25713;-35.352;149.036;2023-05-10T04:16:10;15.60;72.90
40023;DHT22;25713;-35.352;149.036;2023-05-10T04:18:39;15.70;71.80
40023;DHT22;25713;-35.352;149.036;2023-05-10T04:21:16;15.70;71.60
40023;DHT22;25713;-35.352;149.036;2023-05-10T04:23:45;15.70;71.30
40023;DHT22;25713;-35.352;149.036;2023-05-10T04:26:15;15.70;72.10
40023;DHT22;25713;-35.352;149.036;2023-05-10T04:28:44;15.60;70.90
40023;DHT22;25713;-35.352;149.036;2023-05-10T04:31:14;15.70;71.80
40023;DHT22;25713;-35.352;149.036;2023-05-10T04:33:46;15.60;73.10
40023;DHT22;25713;-35.352;149.036;2023-05-10T04:36:17;15.70;71.50
40023;DHT22;25713;-35.352;149.036;2023-05-10T04:38:46;15.70;70.70
40023;DHT22;25713;-35.352;149.036;2023-05-10T04:41:16;15.70;72.10
40023;DHT22;25713;-35.352;149.036;2023-05-10T04:43:46;15.70;71.40
40023;DHT22;25713;-35.352;149.036;2023-05-10T04:46:15;15.70;70.60
40023;DHT22;25713;-35.352;149.036;2023-05-10T04:48:45;15.70;72.40
40023;DHT22;25713;-35.352;149.036;2023-05-10T04:51:17;15.70;72.60
40023;DHT22;25713;-35.352;149.036;2023-05-10T04:53:47;15.80;71.50
40023;DHT22;25713;-35.352;149.036;2023-05-10T04:56:17;15.70;70.90
40023;DHT22;25713;-35.352;149.036;2023-05-10T04:58:46;15.70;72.30
40023;DHT22;25713;-35.352;149.036;2023-05-10T05:01:15;15.80;72.10
40023;DHT22;25713;-35.352;149.036;2023-05-10T05:03:45;15.80;72.30
40023;DHT22;25713;-35.352;149.036;2023-05-10T05:06:18;15.80;71.70
40023;DHT22;25713;-35.352;149.036;2023-05-10T05:08:47;15.80;71.00
40023;DHT22;25713;-35.352;149.036;2023-05-10T05:11:17;15.80;71.20
40023;DHT22;25713;-35.352;149.036;2023-05-10T05:13:47;15.80;72.00
40023;DHT22;25713;-35.352;149.036;2023-05-10T05:16:16;15.80;73.20
40023;DHT22;25713;-35.352;149.036;2023-05-10T05:18:46;15.80;73.30
40023;DHT22;25713;-35.352;149.036;2023-05-10T05:21:19;15.80;73.20
40023;DHT22;25713;-35.352;149.036;2023-05-10T05:23:49;15.80;73.40
40023;DHT22;25713;-35.352;149.036;2023-05-10T05:26:18;15.80;73.20
40023;DHT22;25713;-35.352;149.036;2023-05-10T05:28:48;15.80;72.80
40023;DHT22;25713;-35.352;149.036;2023-05-10T05:31:17;15.80;72.90
40023;DHT22;25713;-35.352;149.036;2023-05-10T05:33:47;15.80;72.70
40023;DHT22;25713;-35.352;149.036;2023-05-10T05:36:20;15.80;72.90
40023;DHT22;25713;-35.352;149.036;2023-05-10T05:38:49;15.80;73.30
40023;DHT22;25713;-35.352;149.036;2023-05-10T05:41:19;15.80;72.40
40023;DHT22;25713;-35.352;149.036;2023-05-10T05:43:48;15.70;72.10
40023;DHT22;25713;-35.352;149.036;2023-05-10T05:46:17;15.70;72.30
40023;DHT22;25713;-35.352;149.036;2023-05-10T05:48:47;15.70;73.40
40023;DHT22;25713;-35.352;149.036;2023-05-10T05:51:19;15.70;73.80
40023;DHT22;25713;-35.352;149.036;2023-05-10T05:53:47;15.70;73.80
40023;DHT22;25713;-35.352;149.036;2023-05-10T05:56:17;15.60;73.80
40023;DHT22;25713;-35.352;149.036;2023-05-10T05:58:47;15.60;73.60
40023;DHT22;25713;-35.352;149.036;2023-05-10T06:01:16;15.60;73.40
40023;DHT22;25713;-35.352;149.036;2023-05-10T06:03:46;15.60;74.60
40023;DHT22;25713;-35.352;149.036;2023-05-10T06:06:18;15.60;74.90
40023;DHT22;25713;-35.352;149.036;2023-05-10T06:08:48;15.50;74.60
40023;DHT22;25713;-35.352;149.036;2023-05-10T06:11:17;15.50;74.70
40023;DHT22;25713;-35.352;149.036;2023-05-10T06:13:47;15.50;75.10
40023;DHT22;25713;-35.352;149.036;2023-05-10T06:16:17;15.50;74.70
40023;DHT22;25713;-35.352;149.036;2023-05-10T06:18:46;15.50;75.40
40023;DHT22;25713;-35.352;149.036;2023-05-10T06:21:18;15.50;75.90
40023;DHT22;25713;-35.352;149.036;2023-05-10T06:23:47;15.50;76.40
40023;DHT22;25713;-35.352;149.036;2023-05-10T06:26:17;15.50;75.80
40023;DHT22;25713;-35.352;149.036;2023-05-10T06:28:47;15.50;76.40
40023;DHT22;25713;-35.352;149.036;2023-05-10T06:31:16;15.40;76.00
40023;DHT22;25713;-35.352;149.036;2023-05-10T06:33:48;15.40;76.20
40023;DHT22;25713;-35.352;149.036;2023-05-10T06:36:19;15.40;76.50
40023;DHT22;25713;-35.352;149.036;2023-05-10T06:38:49;15.30;77.70
40023;DHT22;25713;-35.352;149.036;2023-05-10T06:41:18;15.30;77.80
40023;DHT22;25713;-35.352;149.036;2023-05-10T06:43:48;15.30;78.40
40023;DHT22;25713;-35.352;149.036;2023-05-10T06:46:18;15.30;78.40
40023;DHT22;25713;-35.352;149.036;2023-05-10T06:48:47;15.30;78.80
40023;DHT22;25713;-35.352;149.036;2023-05-10T06:51:20;15.30;79.10
40023;DHT22;25713;-35.352;149.036;2023-05-10T06:53:48;15.40;79.60
40023;DHT22;25713;-35.352;149.036;2023-05-10T06:56:18;15.30;79.60
40023;DHT22;25713;-35.352;149.036;2023-05-10T06:58:47;15.30;79.90
40023;DHT22;25713;-35.352;149.036;2023-05-10T07:01:16;15.30;80.50
40023;DHT22;25713;-35.352;149.036;2023-05-10T07:03:46;15.30;80.60
40023;DHT22;25713;-35.352;149.036;2023-05-10T07:06:15;15.30;80.90
40023;DHT22;25713;-35.352;149.036;2023-05-10T07:08:47;15.30;80.80
40023;DHT22;25713;-35.352;149.036;2023-05-10T07:11:16;15.30;81.80
40023;DHT22;25713;-35.352;149.036;2023-05-10T07:13:46;15.30;81.70
40023;DHT22;25713;-35.352;149.036;2023-05-10T07:16:16;15.30;81.80
40023;DHT22;25713;-35.352;149.036;2023-05-10T07:18:45;15.30;81.90
40023;DHT22;25713;-35.352;149.036;2023-05-10T07:21:15;15.30;81.70
40023;DHT22;25713;-35.352;149.036;2023-05-10T07:23:47;15.30;81.90
40023;DHT22;25713;-35.352;149.036;2023-05-10T07:26:16;15.30;82.10
40023;DHT22;25713;-35.352;149.036;2023-05-10T07:28:46;15.30;82.00
40023;DHT22;25713;-35.352;149.036;2023-05-10T07:31:15;15.30;82.00
40023;DHT22;25713;-35.352;149.036;2023-05-10T07:33:44;15.30;82.10
40023;DHT22;25713;-35.352;149.036;2023-05-10T07:36:14;15.20;82.20
40023;DHT22;25713;-35.352;149.036;2023-05-10T07:38:43;15.20;82.20
40023;DHT22;25713;-35.352;149.036;2023-05-10T07:41:15;15.20;82.30
40023;DHT22;25713;-35.352;149.036;2023-05-10T07:43:44;15.20;82.40
40023;DHT22;25713;-35.352;149.036;2023-05-10T07:46:14;15.20;82.70
40023;DHT22;25713;-35.352;149.036;2023-05-10T07:48:43;15.20;82.80
40023;DHT22;25713;-35.352;149.036;2023-05-10T07:51:14;15.20;83.60
40023;DHT22;25713;-35.352;149.036;2023-05-10T07:53:44;15.20;83.00
40023;DHT22;25713;-35.352;149.036;2023-05-10T07:56:25;15.20;83.00
40023;DHT22;25713;-35.352;149.036;2023-05-10T07:58:55;15.20;82.90
40023;DHT22;25713;-35.352;149.036;2023-05-10T08:01:25;15.20;83.10
40023;DHT22;25713;-35.352;149.036;2023-05-10T08:03:54;15.20;82.90
40023;DHT22;25713;-35.352;149.036;2023-05-10T08:06:24;15.10;82.60
40023;DHT22;25713;-35.352;149.036;2023-05-10T08:08:53;15.10;82.60
40023;DHT22;25713;-35.352;149.036;2023-05-10T08:11:25;15.10;82.60
40023;DHT22;25713;-35.352;149.036;2023-05-10T08:13:55;15.10;83.00
40023;DHT22;25713;-35.352;149.036;2023-05-10T08:16:24;15.10;82.90
40023;DHT22;25713;-35.352;149.036;2023-05-10T08:18:54;15.10;82.80
40023;DHT22;25713;-35.352;149.036;2023-05-10T08:21:24;15.00;82.80
40023;DHT22;25713;-35.352;149.036;2023-05-10T08:23:53;15.00;82.70
40023;DHT22;25713;-35.352;149.036;2023-05-10T08:26:24;15.00;82.50
40023;DHT22;25713;-35.352;149.036;2023-05-10T08:28:54;15.00;82.70
40023;DHT22;25713;-35.352;149.036;2023-05-10T08:31:23;15.00;82.50
40023;DHT22;25713;-35.352;149.036;2023-05-10T08:33:52;15.00;82.70
40023;DHT22;25713;-35.352;149.036;2023-05-10T08:36:22;15.00;82.60
40023;DHT22;25713;-35.352;149.036;2023-05-10T08:38:52;15.00;82.60
40023;DHT22;25713;-35.352;149.036;2023-05-10T08:41:24;15.00;82.60
40023;DHT22;25713;-35.352;149.036;2023-05-10T08:43:54;14.90;83.30
40023;DHT22;25713;-35.352;149.036;2023-05-10T08:46:25;14.90;82.60
40023;DHT22;25713;-35.352;149.036;2023-05-10T08:48:56;15.00;82.60
40023;DHT22;25713;-35.352;149.036;2023-05-10T08:51:28;15.00;82.90
40023;DHT22;25713;-35.352;149.036;2023-05-10T08:53:59;14.90;82.90
40023;DHT22;25713;-35.352;149.036;2023-05-10T08:56:30;14.90;82.80
40023;DHT22;25713;-35.352;149.036;2023-05-10T08:59:00;14.90;83.30
40023;DHT22;25713;-35.352;149.036;2023-05-10T09:01:32;14.90;82.70
40023;DHT22;25713;-35.352;149.036;2023-05-10T09:04:04;14.90;83.00
40023;DHT22;25713;-35.352;149.036;2023-05-10T09:06:34;14.90;83.10
40023;DHT22;25713;-35.352;149.036;2023-05-10T09:09:04;14.90;83.50
40023;DHT22;25713;-35.352;149.036;2023-05-10T09:11:35;14.90;83.00
40023;DHT22;25713;-35.352;149.036;2023-05-10T09:14:05;14.90;83.40
40023;DHT22;25713;-35.352;149.036;2023-05-10T09:16:35;14.90;83.80
40023;DHT22;25713;-35.352;149.036;2023-05-10T09:19:05;14.80;83.20
40023;DHT22;25713;-35.352;149.036;2023-05-10T09:21:35;14.80;83.50
40023;DHT22;25713;-35.352;149.036;2023-05-10T09:24:05;14.80;83.70
40023;DHT22;25713;-35.352;149.036;2023-05-10T09:26:46;14.80;83.50
40023;DHT22;25713;-35.352;149.036;2023-05-10T09:29:16;14.80;83.30
40023;DHT22;25713;-35.352;149.036;2023-05-10T09:31:47;14.80;83.60
40023;DHT22;25713;-35.352;149.036;2023-05-10T09:34:18;14.80;83.70
40023;DHT22;25713;-35.352;149.036;2023-05-10T09:36:55;14.80;83.50
40023;DHT22;25713;-35.352;149.036;2023-05-10T09:39:32;14.80;84.40
40023;DHT22;25713;-35.352;149.036;2023-05-10T09:42:05;14.80;84.50
40023;DHT22;25713;-35.352;149.036;2023-05-10T09:44:35;14.80;84.40
40023;DHT22;25713;-35.352;149.036;2023-05-10T09:47:05;14.80;84.00
40023;DHT22;25713;-35.352;149.036;2023-05-10T09:49:35;14.70;83.50
40023;DHT22;25713;-35.352;149.036;2023-05-10T09:52:05;14.70;83.60
40023;DHT22;25713;-35.352;149.036;2023-05-10T09:54:36;14.70;84.40
40023;DHT22;25713;-35.352;149.036;2023-05-10T09:57:20;14.70;85.30
40023;DHT22;25713;-35.352;149.036;2023-05-10T09:59:50;14.70;85.10
40023;DHT22;25713;-35.352;149.036;2023-05-10T10:02:19;14.70;84.40
40023;DHT22;25713;-35.352;149.036;2023-05-10T10:04:51;14.60;84.40
40023;DHT22;25713;-35.352;149.036;2023-05-10T10:07:24;14.70;83.70
40023;DHT22;25713;-35.352;149.036;2023-05-10T10:09:54;14.60;84.40
40023;DHT22;25713;-35.352;149.036;2023-05-10T10:12:27;14.60;83.90
40023;DHT22;25713;-35.352;149.036;2023-05-10T10:14:57;14.60;84.10
40023;DHT22;25713;-35.352;149.036;2023-05-10T10:17:28;14.60;84.00
40023;DHT22;25713;-35.352;149.036;2023-05-10T10:19:59;14.60;84.30
40023;DHT22;25713;-35.352;149.036;2023-05-10T10:22:29;14.60;84.10
40023;DHT22;25713;-35.352;149.036;2023-05-10T10:24:58;14.60;84.10
40023;DHT22;25713;-35.352;149.036;2023-05-10T10:27:41;14.60;84.20
40023;DHT22;25713;-35.352;149.036;2023-05-10T10:30:20;14.50;84.00
40023;DHT22;25713;-35.352;149.036;2023-05-10T10:36:01;14.60;84.50
40023;DHT22;25713;-35.352;149.036;2023-05-10T10:38:38;14.50;84.70
40023;DHT22;25713;-35.352;149.036;2023-05-10T10:41:32;14.60;84.80
40023;DHT22;25713;-35.352;149.036;2023-05-10T10:44:33;14.50;84.70
40023;DHT22;25713;-35.352;149.036;2023-05-10T10:47:07;14.50;85.00
40023;DHT22;25713;-35.352;149.036;2023-05-10T10:49:48;14.50;84.60
40023;DHT22;25713;-35.352;149.036;2023-05-10T10:52:23;14.50;84.30
40023;DHT22;25713;-35.352;149.036;2023-05-10T10:54:57;14.50;84.70
40023;DHT22;25713;-35.352;149.036;2023-05-10T10:57:28;14.50;84.40
40023;DHT22;25713;-35.352;149.036;2023-05-10T11:00:24;14.50;84.40
40023;DHT22;25713;-35.352;149.036;2023-05-10T11:02:55;14.50;84.00
40023;DHT22;25713;-35.352;149.036;2023-05-10T11:05:36;14.40;84.20
40023;DHT22;25713;-35.352;149.036;2023-05-10T11:08:11;14.50;84.20
40023;DHT22;25713;-35.352;149.036;2023-05-10T11:10:49;14.40;84.00
40023;DHT22;25713;-35.352;149.036;2023-05-10T11:13:28;14.40;83.80
40023;DHT22;25713;-35.352;149.036;2023-05-10T11:16:14;14.40;83.70
40023;DHT22;25713;-35.352;149.036;2023-05-10T11:18:59;14.40;83.20
40023;DHT22;25713;-35.352;149.036;2023-05-10T11:21:30;14.40;83.00
40023;DHT22;25713;-35.352;149.036;2023-05-10T11:24:00;14.40;82.90
40023;DHT22;25713;-35.352;149.036;2023-05-10T11:26:33;14.40;82.50
40023;DHT22;25713;-35.352;149.036;2023-05-10T11:29:03;14.40;82.60
40023;DHT22;25713;-35.352;149.036;2023-05-10T11:31:38;14.40;82.40
40023;DHT22;25713;-35.352;149.036;2023-05-10T11:34:11;14.30;82.20
40023;DHT22;25713;-35.352;149.036;2023-05-10T11:36:40;14.40;82.40
40023;DHT22;25713;-35.352;149.036;2023-05-10T11:39:10;14.30;82.20
40023;DHT22;25713;-35.352;149.036;2023-05-10T11:41:40;14.30;82.00
40023;DHT22;25713;-35.352;149.036;2023-05-10T11:44:10;14.30;81.80
40023;DHT22;25713;-35.352;149.036;2023-05-10T11:46:42;14.30;81.50
40023;DHT22;25713;-35.352;149.036;2023-05-10T11:49:12;14.30;81.30
40023;DHT22;25713;-35.352;149.036;2023-05-10T11:51:41;14.20;80.90
40023;DHT22;25713;-35.352;149.036;2023-05-10T11:54:11;14.20;81.10
40023;DHT22;25713;-35.352;149.036;2023-05-10T11:56:41;14.20;80.90
40023;DHT22;25713;-35.352;149.036;2023-05-10T11:59:13;14.20;81.40
40023;DHT22;25713;-35.352;149.036;2023-05-10T12:01:45;14.20;81.10
40023;DHT22;25713;-35.352;149.036;2023-05-10T12:04:14;14.20;80.90
40023;DHT22;25713;-35.352;149.036;2023-05-10T12:06:44;14.20;80.90
40023;DHT22;25713;-35.352;149.036;2023-05-10T12:09:14;14.20;80.90
40023;DHT22;25713;-35.352;149.036;2023-05-10T12:11:43;14.20;80.90
40023;DHT22;25713;-35.352;149.036;2023-05-10T12:14:13;14.20;80.60
40023;DHT22;25713;-35.352;149.036;2023-05-10T12:16:44;14.20;80.80
40023;DHT22;25713;-35.352;149.036;2023-05-10T12:19:19;14.10;80.40
40023;DHT22;25713;-35.352;149.036;2023-05-10T12:21:49;14.10;79.90
40023;DHT22;25713;-35.352;149.036;2023-05-10T12:24:18;14.10;79.60
40023;DHT22;25713;-35.352;149.036;2023-05-10T12:26:48;14.10;79.50
40023;DHT22;25713;-35.352;149.036;2023-05-10T12:29:18;14.10;79.50
40023;DHT22;25713;-35.352;149.036;2023-05-10T12:31:54;14.00;79.30
40023;DHT22;25713;-35.352;149.036;2023-05-10T12:34:32;14.00;79.80
40023;DHT22;25713;-35.352;149.036;2023-05-10T12:37:02;14.10;79.70
40023;DHT22;25713;-35.352;149.036;2023-05-10T12:39:42;14.00;79.40
40023;DHT22;25713;-35.352;149.036;2023-05-10T12:42:12;14.00;79.40
40023;DHT22;25713;-35.352;149.036;2023-05-10T12:44:41;14.00;79.70
40023;DHT22;25713;-35.352;149.036;2023-05-10T12:47:12;14.00;79.30
40023;DHT22;25713;-35.352;149.036;2023-05-10T12:49:42;14.00;79.30
40023;DHT22;25713;-35.352;149.036;2023-05-10T12:52:11;14.00;79.00
40023;DHT22;25713;-35.352;149.036;2023-05-10T12:54:41;14.00;79.00
40023;DHT22;25713;-35.352;149.036;2023-05-10T12:57:10;14.00;78.90
40023;DHT22;25713;-35.352;149.036;2023-05-10T12:59:40;14.00;78.90
40023;DHT22;25713;-35.352;149.036;2023-05-10T13:02:11;14.00;78.20
40023;DHT22;25713;-35.352;149.036;2023-05-10T13:04:41;13.90;78.10
40023;DHT22;25713;-35.352;149.036;2023-05-10T13:07:10;13.90;78.20
40023;DHT22;25713;-35.352;149.036;2023-05-10T13:09:40;14.00;78.00
40023;DHT22;25713;-35.352;149.036;2023-05-10T13:12:10;13.90;78.30
40023;DHT22;25713;-35.352;149.036;2023-05-10T13:14:39;13.90;78.00
40023;DHT22;25713;-35.352;149.036;2023-05-10T13:17:09;13.90;78.00
40023;DHT22;25713;-35.352;149.036;2023-05-10T13:19:40;13.90;78.20
40023;DHT22;25713;-35.352;149.036;2023-05-10T13:22:10;13.90;78.10
40023;DHT22;25713;-35.352;149.036;2023-05-10T13:24:39;13.90;77.90
40023;DHT22;25713;-35.352;149.036;2023-05-10T13:27:08;13.80;77.50
40023;DHT22;25713;-35.352;149.036;2023-05-10T13:29:38;13.80;78.40
40023;DHT22;25713;-35.352;149.036;2023-05-10T13:32:07;13.80;78.60
40023;DHT22;25713;-35.352;149.036;2023-05-10T13:34:40;13.80;78.20
40023;DHT22;25713;-35.352;149.036;2023-05-10T13:37:09;13.80;78.60
40023;DHT22;25713;-35.352;149.036;2023-05-10T13:39:39;13.70;78.60
40023;DHT22;25713;-35.352;149.036;2023-05-10T13:42:09;13.80;77.90
40023;DHT22;25713;-35.352;149.036;2023-05-10T13:44:38;13.70;78.10
40023;DHT22;25713;-35.352;149.036;2023-05-10T13:47:08;13.70;77.70
40023;DHT22;25713;-35.352;149.036;2023-05-10T13:49:41;13.70;77.80
40023;DHT22;25713;-35.352;149.036;2023-05-10T13:52:09;13.70;77.80
40023;DHT22;25713;-35.352;149.036;2023-05-10T13:54:38;13.70;77.80
40023;DHT22;25713;-35.352;149.036;2023-05-10T13:57:08;13.70;77.90
40023;DHT22;25713;-35.352;149.036;2023-05-10T13:59:37;13.70;77.70
40023;DHT22;25713;-35.352;149.036;2023-05-10T14:02:07;13.70;77.80
40023;DHT22;25713;-35.352;149.036;2023-05-10T14:04:36;13.70;77.50
40023;DHT22;25713;-35.352;149.036;2023-05-10T14:07:08;13.70;77.40
40023;DHT22;25713;-35.352;149.036;2023-05-10T14:09:38;13.70;77.20
40023;DHT22;25713;-35.352;149.036;2023-05-10T14:12:07;13.70;77.40
40023;DHT22;25713;-35.352;149.036;2023-05-10T14:14:36;13.60;77.10
40023;DHT22;25713;-35.352;149.036;2023-05-10T14:17:06;13.60;77.30
40023;DHT22;25713;-35.352;149.036;2023-05-10T14:19:35;13.70;77.40
40023;DHT22;25713;-35.352;149.036;2023-05-10T14:22:07;13.70;77.30
40023;DHT22;25713;-35.352;149.036;2023-05-10T14:24:37;13.60;77.20
40023;DHT22;25713;-35.352;149.036;2023-05-10T14:27:07;13.70;77.30
40023;DHT22;25713;-35.352;149.036;2023-05-10T14:29:36;13.60;77.40
40023;DHT22;25713;-35.352;149.036;2023-05-10T14:32:06;13.60;77.60
40023;DHT22;25713;-35.352;149.036;2023-05-10T14:34:35;13.60;77.40
40023;DHT22;25713;-35.352;149.036;2023-05-10T14:37:09;13.60;77.30
40023;DHT22;25713;-35.352;149.036;2023-05-10T14:39:39;13.60;77.30
40023;DHT22;25713;-35.352;149.036;2023-05-10T14:42:08;13.60;77.30
40023;DHT22;25713;-35.352;149.036;2023-05-10T14:44:38;13.60;77.40
40023;DHT22;25713;-35.352;149.036;2023-05-10T14:47:07;13.60;77.40
40023;DHT22;25713;-35.352;149.036;2023-05-10T16:01:31;13.20;78.60
40023;DHT22;25713;-35.352;149.036;2023-05-10T16:04:01;13.20;79.60
40023;DHT22;25713;-35.352;149.036;2023-05-10T16:06:30;13.20;79.70
40023;DHT22;25713;-35.352;149.036;2023-05-10T16:09:00;13.20;79.40
40023;DHT22;25713;-35.352;149.036;2023-05-10T16:11:29;13.30;79.00
40023;DHT22;25713;-35.352;149.036;2023-05-10T16:13:59;13.30;78.90
40023;DHT22;25713;-35.352;149.036;2023-05-10T16:16:32;13.30;78.70
40023;DHT22;25713;-35.352;149.036;2023-05-10T16:19:02;13.30;78.30
40023;DHT22;25713;-35.352;149.036;2023-05-10T16:21:31;13.30;77.90
40023;DHT22;25713;-35.352;149.036;2023-05-10T16:24:01;13.30;77.90
40023;DHT22;25713;-35.352;149.036;2023-05-10T16:26:31;13.30;77.80
40023;DHT22;25713;-35.352;149.036;2023-05-10T16:29:00;13.30;77.60
40023;DHT22;25713;-35.352;149.036;2023-05-10T16:31:33;13.40;77.30
40023;DHT22;25713;-35.352;149.036;2023-05-10T16:34:03;13.40;77.60